createdAt,value
2022-10-18T00:01:56.027Z,9.00
2022-10-18T00:04:23.273Z,8.90
2022-10-18T00:06:50.412Z,9.68
2022-10-18T00:09:17.719Z,8.65
2022-10-18T00:11:45.319Z,8.82
2022-10-18T00:14:12.490Z,8.68
2022-10-18T00:16:39.625Z,9.00
2022-10-18T00:19:06.775Z,9.20
2022-10-18T00:21:33.954Z,8.50
2022-10-18T00:24:01.239Z,8.80
2022-10-18T00:26:29.484Z,8.05
2022-10-18T00:28:59.762Z,8.55
2022-10-18T00:31:28.214Z,8.82
2022-10-18T00:33:57.276Z,9.00
2022-10-18T00:36:25.440Z,8.57
2022-10-18T00:38:53.221Z,9.30
2022-10-18T00:41:21.842Z,8.02
2022-10-18T00:44:07.954Z,8.85
2022-10-18T00:46:36.747Z,8.50
2022-10-18T00:49:24.429Z,7.63
2022-10-18T00:51:57.448Z,8.40
2022-10-18T00:54:25.576Z,7.55
2022-10-18T00:56:52.755Z,8.38
2022-10-18T00:59:20.480Z,8.27
2022-10-18T01:01:47.770Z,8.38
2022-10-18T01:04:16.021Z,7.63
2022-10-18T01:06:53.612Z,7.82
2022-10-18T01:09:26.284Z,7.78
2022-10-18T01:12:04.341Z,7.80
2022-10-18T01:15:03.871Z,7.68
2022-10-18T01:17:39.300Z,7.45
2022-10-18T01:20:19.740Z,8.68
2022-10-18T01:22:59.290Z,8.00
2022-10-18T01:25:42.996Z,7.93
2022-10-18T01:28:28.372Z,6.85
2022-10-18T01:30:55.524Z,7.22
2022-10-18T01:33:39.404Z,7.70
2022-10-18T01:36:15.149Z,8.15
2022-10-18T01:41:13.299Z,7.80
2022-10-18T01:43:44.112Z,7.07
2022-10-18T01:46:12.475Z,7.68
2022-10-18T01:48:40.066Z,7.05
2022-10-18T01:51:07.265Z,6.65
2022-10-18T01:53:35.674Z,7.47
2022-10-18T01:56:23.152Z,6.47
2022-10-18T01:58:50.303Z,7.10
2022-10-18T02:01:25.481Z,7.25
2022-10-18T02:03:57.134Z,7.65
2022-10-18T02:06:27.929Z,6.10
2022-10-18T02:08:58.610Z,7.25
2022-10-18T02:11:27.337Z,6.72
2022-10-18T02:14:06.639Z,7.13
2022-10-18T02:16:39.752Z,6.35
2022-10-18T02:19:14.612Z,6.43
2022-10-18T02:21:42.915Z,6.47
2022-10-18T02:24:10.883Z,6.45
2022-10-18T02:26:38.143Z,6.53
2022-10-18T02:29:05.416Z,7.32
2022-10-18T02:31:37.124Z,6.50
2022-10-18T02:34:10.482Z,6.65
2022-10-18T02:36:45.006Z,7.10
2022-10-18T02:39:32.380Z,6.45
2022-10-18T02:41:59.888Z,7.78
2022-10-18T02:44:27.169Z,7.30
2022-10-18T02:46:54.439Z,7.57
2022-10-18T02:49:21.639Z,6.82
2022-10-18T02:51:48.803Z,6.60
2022-10-18T02:54:15.919Z,6.85
2022-10-18T02:56:43.056Z,6.90
2022-10-18T02:59:10.244Z,6.78
2022-10-18T03:01:37.430Z,6.80
2022-10-18T03:04:05.274Z,7.38
2022-10-18T03:06:33.035Z,7.28
2022-10-18T03:09:00.288Z,7.20
2022-10-18T03:11:27.443Z,7.10
2022-10-18T03:13:54.637Z,6.93
2022-10-18T03:16:21.836Z,6.82
2022-10-18T03:18:48.978Z,6.60
2022-10-18T03:21:16.145Z,6.72
2022-10-18T03:23:43.695Z,6.43
2022-10-18T03:26:10.832Z,6.43
2022-10-18T03:28:38.049Z,6.35
2022-10-18T03:31:05.645Z,6.85
2022-10-18T03:33:33.185Z,6.63
2022-10-18T03:36:00.498Z,6.82
2022-10-18T03:38:27.724Z,6.30
2022-10-18T03:40:54.961Z,6.22
2022-10-18T03:43:22.612Z,6.20
2022-10-18T03:45:49.734Z,6.80
2022-10-18T03:48:16.884Z,5.85
2022-10-18T03:50:44.661Z,6.13
2022-10-18T03:53:11.838Z,6.53
2022-10-18T03:55:39.181Z,5.85
2022-10-18T03:58:06.379Z,6.35
2022-10-18T04:00:33.983Z,6.40
2022-10-18T04:03:01.351Z,6.43
2022-10-18T04:05:30.796Z,6.82
2022-10-18T04:07:58.359Z,6.18
2022-10-18T04:10:25.643Z,7.40
2022-10-18T04:12:52.854Z,6.50
2022-10-18T04:15:20.046Z,6.57
2022-10-18T04:17:47.587Z,7.63
2022-10-18T04:20:14.781Z,6.93
2022-10-18T04:22:42.042Z,6.40
2022-10-18T04:25:09.334Z,6.75
2022-10-18T04:27:36.760Z,6.18
2022-10-18T04:30:04.070Z,6.20
2022-10-18T04:32:31.254Z,6.32
2022-10-18T04:34:58.604Z,6.13
2022-10-18T04:37:25.719Z,7.00
2022-10-18T04:39:53.808Z,6.13
2022-10-18T04:42:21.779Z,6.10
2022-10-18T04:44:48.949Z,5.72
2022-10-18T04:47:16.188Z,6.60
2022-10-18T04:49:44.112Z,6.30
2022-10-18T04:52:11.300Z,6.50
2022-10-18T04:54:38.538Z,6.55
2022-10-18T04:57:05.725Z,6.05
2022-10-18T04:59:32.876Z,6.50
2022-10-18T05:02:00.213Z,5.93
2022-10-18T05:04:27.571Z,6.53
2022-10-18T05:06:54.733Z,6.55
2022-10-18T05:09:24.564Z,6.50
2022-10-18T05:11:51.852Z,6.68
2022-10-18T05:14:19.071Z,7.80
2022-10-18T05:16:46.487Z,7.25
2022-10-18T05:19:13.609Z,6.97
2022-10-18T05:21:40.847Z,7.38
2022-10-18T05:24:08.092Z,8.57
2022-10-18T05:26:35.300Z,8.50
2022-10-18T05:29:02.653Z,7.55
2022-10-18T05:31:30.100Z,7.35
2022-10-18T05:33:57.328Z,7.40
2022-10-18T05:36:26.178Z,7.22
2022-10-18T05:38:54.009Z,8.55
2022-10-18T05:41:21.288Z,8.30
2022-10-18T05:43:48.460Z,9.25
2022-10-18T05:46:15.950Z,7.10
2022-10-18T05:48:44.369Z,7.40
2022-10-18T05:51:11.824Z,8.15
2022-10-18T05:53:38.934Z,8.13
2022-10-18T05:56:06.973Z,7.93
2022-10-18T05:58:34.586Z,7.72
2022-10-18T06:01:02.407Z,8.20
2022-10-18T06:03:30.869Z,8.10
2022-10-18T06:06:02.010Z,7.30
2022-10-18T06:08:29.279Z,8.40
2022-10-18T06:10:56.693Z,8.23
2022-10-18T06:13:23.913Z,7.78
2022-10-18T06:15:51.269Z,8.15
2022-10-18T06:18:18.460Z,8.10
2022-10-18T06:20:45.614Z,8.70
2022-10-18T06:23:12.947Z,7.97
2022-10-18T06:25:40.118Z,7.95
2022-10-18T06:28:10.181Z,8.77
2022-10-18T06:30:39.240Z,8.50
2022-10-18T06:33:06.433Z,8.35
2022-10-18T06:35:33.661Z,7.93
2022-10-18T06:38:00.850Z,8.85
2022-10-18T06:40:28.005Z,8.68
2022-10-18T06:43:00.289Z,9.40
2022-10-18T06:45:33.510Z,8.75
2022-10-18T06:48:00.933Z,8.57
2022-10-18T06:50:28.130Z,9.35
2022-10-18T06:52:55.280Z,8.70
2022-10-18T06:55:22.462Z,8.15
2022-10-18T06:57:49.722Z,8.38
2022-10-18T07:00:16.922Z,8.88
2022-10-18T07:02:44.085Z,8.90
2022-10-18T07:05:11.841Z,8.43
2022-10-18T07:07:39.481Z,9.20
2022-10-18T07:10:09.236Z,9.88
2022-10-18T07:12:36.497Z,9.45
2022-10-18T07:15:08.985Z,9.60
2022-10-18T07:17:36.552Z,9.20
2022-10-18T07:20:04.343Z,9.32
2022-10-18T07:22:31.557Z,9.02
2022-10-18T07:24:58.898Z,8.30
2022-10-18T07:27:26.143Z,8.50
2022-10-18T07:29:53.310Z,7.97
2022-10-18T07:32:21.060Z,7.28
2022-10-18T07:34:48.280Z,8.90
2022-10-18T07:37:15.457Z,8.30
2022-10-18T07:39:43.110Z,8.65
2022-10-18T07:42:10.237Z,8.20
2022-10-18T07:44:37.459Z,8.35
2022-10-18T07:47:04.573Z,8.57
2022-10-18T07:49:31.806Z,9.23
2022-10-18T07:51:58.948Z,8.38
2022-10-18T07:54:26.107Z,8.27
2022-10-18T07:56:53.356Z,9.30
2022-10-18T07:59:20.509Z,8.65
2022-10-18T08:01:47.723Z,8.30
2022-10-18T08:04:16.518Z,9.40
2022-10-18T08:06:43.889Z,8.15
2022-10-18T08:09:11.009Z,8.70
2022-10-18T08:11:38.309Z,7.90
2022-10-18T08:14:05.465Z,9.10
2022-10-18T08:19:04.736Z,8.95
2022-10-18T08:21:31.931Z,7.82
2022-10-18T08:23:59.092Z,8.30
2022-10-18T08:26:26.253Z,8.13
2022-10-18T08:28:54.376Z,8.70
2022-10-18T08:31:31.033Z,9.18
2022-10-18T08:33:58.480Z,9.55
2022-10-18T08:36:25.654Z,8.30
2022-10-18T08:38:52.924Z,10.23
2022-10-18T08:41:38.359Z,10.20
2022-10-18T08:44:08.695Z,8.00
2022-10-18T08:46:37.500Z,8.15
2022-10-18T08:49:05.111Z,8.73
2022-10-18T08:51:36.278Z,8.52
2022-10-18T08:54:36.018Z,8.50
2022-10-18T08:57:04.077Z,9.02
2022-10-18T08:59:41.305Z,8.68
2022-10-18T09:02:11.457Z,8.70
2022-10-18T09:04:58.923Z,9.45
2022-10-18T09:07:29.209Z,9.40
2022-10-18T09:10:14.542Z,10.43
2022-10-18T09:12:52.145Z,9.93
2022-10-18T09:15:25.297Z,9.90
2022-10-18T09:17:55.488Z,9.57
2022-10-18T09:20:25.581Z,10.20
2022-10-18T09:23:28.252Z,9.50
2022-10-18T09:25:59.536Z,10.70
2022-10-18T09:28:30.593Z,10.90
2022-10-18T09:31:00.727Z,9.52
2022-10-18T09:33:40.160Z,10.77
2022-10-18T09:36:09.697Z,10.38
2022-10-18T09:38:50.289Z,9.40
2022-10-18T09:41:20.193Z,10.23
2022-10-18T09:43:56.421Z,10.75
2022-10-18T09:46:25.855Z,10.57
2022-10-18T09:49:11.708Z,10.25
2022-10-18T09:51:42.231Z,12.77
2022-10-18T09:54:21.789Z,13.52
2022-10-18T09:56:57.976Z,15.40
2022-10-18T09:59:25.233Z,17.58
2022-10-18T10:01:52.391Z,15.60
2022-10-18T10:04:19.541Z,14.57
2022-10-18T10:06:51.362Z,15.63
2022-10-18T10:09:19.125Z,15.75
2022-10-18T10:11:50.830Z,15.98
2022-10-18T10:14:18.040Z,20.30
2022-10-18T10:16:58.961Z,24.92
2022-10-18T10:19:31.324Z,31.27
2022-10-18T10:22:00.646Z,28.42
2022-10-18T10:24:33.613Z,28.73
2022-10-18T10:27:05.780Z,24.35
2022-10-18T10:29:48.713Z,23.05
2022-10-18T10:32:17.382Z,23.80
2022-10-18T10:34:45.523Z,23.90
2022-10-18T10:37:45.214Z,21.45
2022-10-18T10:40:19.212Z,24.85
2022-10-18T10:43:04.319Z,24.40
2022-10-18T10:45:59.324Z,23.08
2022-10-18T10:51:02.868Z,25.25
2022-10-18T10:53:40.876Z,22.15
2022-10-18T10:56:16.036Z,25.45
2022-10-18T10:58:43.636Z,21.35
2022-10-18T11:01:19.786Z,23.17
2022-10-18T11:03:51.303Z,22.52
2022-10-18T11:06:37.367Z,24.00
2022-10-18T11:09:06.889Z,22.20
2022-10-18T11:11:40.471Z,20.90
2022-10-18T11:14:26.231Z,22.33
2022-10-18T11:17:12.793Z,20.77
2022-10-18T11:19:52.250Z,21.25
2022-10-18T11:22:20.638Z,20.77
2022-10-18T11:24:48.767Z,20.23
2022-10-18T11:27:22.039Z,20.20
2022-10-18T11:30:07.839Z,20.33
2022-10-18T11:32:40.505Z,19.73
2022-10-18T11:35:13.057Z,19.40
2022-10-18T11:37:43.487Z,18.80
2022-10-18T11:40:13.784Z,19.38
2022-10-18T11:42:48.173Z,18.45
2022-10-18T11:45:27.805Z,18.17
2022-10-18T11:48:04.214Z,19.40
2022-10-18T11:50:35.608Z,17.88
2022-10-18T11:53:02.762Z,19.55
2022-10-18T11:55:38.319Z,19.33
2022-10-18T11:58:20.556Z,18.23
2022-10-18T12:00:50.825Z,18.65
2022-10-18T12:03:23.895Z,17.45
2022-10-18T12:05:51.864Z,17.38
2022-10-18T12:08:18.979Z,17.65
2022-10-18T12:11:05.029Z,17.05
2022-10-18T12:13:45.320Z,17.63
2022-10-18T12:16:12.898Z,16.73
2022-10-18T12:18:47.818Z,17.13
2022-10-18T12:21:15.052Z,15.80
2022-10-18T12:23:46.661Z,15.57
2022-10-18T12:26:14.101Z,16.33
2022-10-18T12:28:44.311Z,17.40
2022-10-18T12:31:31.073Z,15.48
2022-10-18T12:34:00.638Z,14.70
2022-10-18T12:36:46.551Z,15.02
2022-10-18T12:39:27.289Z,15.23
2022-10-18T12:42:04.929Z,15.07
2022-10-18T12:44:35.659Z,13.25
2022-10-18T12:47:04.150Z,15.43
2022-10-18T12:49:32.928Z,14.63
2022-10-18T12:52:01.705Z,15.57
2022-10-18T12:54:31.108Z,15.63
2022-10-18T12:56:59.733Z,16.20
2022-10-18T12:59:26.952Z,16.33
2022-10-18T13:01:54.126Z,17.63
2022-10-18T13:04:33.684Z,17.33
2022-10-18T13:07:08.244Z,20.42
2022-10-18T13:09:36.662Z,21.20
2022-10-18T13:12:09.932Z,20.77
2022-10-18T13:15:12.512Z,19.88
2022-10-18T13:17:54.939Z,18.60
2022-10-18T13:20:28.700Z,17.10
2022-10-18T13:23:20.048Z,15.73
2022-10-18T13:25:54.268Z,15.13
2022-10-18T13:28:21.368Z,14.45
2022-10-18T13:31:11.518Z,14.43
2022-10-18T13:33:39.799Z,13.80
2022-10-18T13:36:22.987Z,13.98
2022-10-18T13:38:51.041Z,14.02
2022-10-18T13:41:18.249Z,15.10
2022-10-18T13:43:54.392Z,15.98
2022-10-18T13:46:22.096Z,15.45
2022-10-18T13:48:50.755Z,15.05
2022-10-18T13:51:26.769Z,15.13
2022-10-18T13:54:17.237Z,13.68
2022-10-18T13:56:59.693Z,13.75
2022-10-18T13:59:33.589Z,14.27
2022-10-18T14:02:09.609Z,13.55
2022-10-18T14:04:36.810Z,14.02
2022-10-18T14:07:05.755Z,15.40
2022-10-18T14:09:44.933Z,16.42
2022-10-18T14:12:17.719Z,20.67
2022-10-18T14:14:46.866Z,20.35
2022-10-18T14:17:24.541Z,20.40
2022-10-18T14:19:55.160Z,18.95
2022-10-18T14:22:43.787Z,18.67
2022-10-18T14:25:26.907Z,21.88
2022-10-18T14:28:13.020Z,21.50
2022-10-18T14:30:55.101Z,21.65
2022-10-18T14:33:32.410Z,19.58
2022-10-18T14:36:00.837Z,22.33
2022-10-18T14:38:28.111Z,22.30
2022-10-18T14:41:05.983Z,21.95
2022-10-18T14:43:33.187Z,19.40
2022-10-18T14:46:17.641Z,21.38
2022-10-18T14:48:52.513Z,22.00
2022-10-18T14:51:19.976Z,20.50
2022-10-18T14:53:48.079Z,20.52
2022-10-18T14:56:30.070Z,20.15
2022-10-18T14:59:07.837Z,17.70
2022-10-18T15:01:36.336Z,20.05
2022-10-18T15:04:06.340Z,18.73
2022-10-18T15:06:33.929Z,20.05
2022-10-18T15:09:04.202Z,18.00
2022-10-18T15:11:31.937Z,18.83
2022-10-18T15:14:02.940Z,18.95
2022-10-18T15:16:31.448Z,18.60
2022-10-18T15:19:03.294Z,18.13
2022-10-18T15:21:30.534Z,18.80
2022-10-18T15:24:17.649Z,17.23
2022-10-18T15:26:45.414Z,17.65
2022-10-18T15:29:17.866Z,17.95
2022-10-18T15:31:45.207Z,16.33
2022-10-18T15:34:17.184Z,16.45
2022-10-18T15:39:25.824Z,17.58
2022-10-18T15:41:57.325Z,18.00
2022-10-18T15:44:24.425Z,17.15
2022-10-18T15:46:53.366Z,17.23
2022-10-18T15:49:33.964Z,17.30
2022-10-18T15:52:11.674Z,16.67
2022-10-18T15:54:39.226Z,16.45
2022-10-18T15:57:12.464Z,18.58
2022-10-18T15:59:49.961Z,20.20
2022-10-18T16:02:17.302Z,19.25
2022-10-18T16:04:45.968Z,19.33
2022-10-18T16:07:13.138Z,19.13
2022-10-18T16:09:40.499Z,17.58
2022-10-18T16:12:07.777Z,18.98
2022-10-18T16:14:36.322Z,19.08
2022-10-18T16:17:05.372Z,17.45
2022-10-18T16:19:32.846Z,19.17
2022-10-18T16:22:06.134Z,18.85
2022-10-18T16:24:33.892Z,18.00
2022-10-18T16:27:01.037Z,17.20
2022-10-18T16:29:32.038Z,17.70
2022-10-18T16:31:59.900Z,15.88
2022-10-18T16:34:27.507Z,16.13
2022-10-18T16:36:55.063Z,16.58
2022-10-18T16:39:22.705Z,18.27
2022-10-18T16:41:51.436Z,18.42
2022-10-18T16:44:19.269Z,18.42
2022-10-18T16:46:47.635Z,18.65
2022-10-18T16:51:47.051Z,15.70
2022-10-18T16:54:14.243Z,15.52
2022-10-18T16:56:41.444Z,16.92
2022-10-18T16:59:11.270Z,17.67
2022-10-18T17:01:38.461Z,16.77
2022-10-18T17:04:05.716Z,15.57
2022-10-18T17:06:33.710Z,16.60
2022-10-18T17:09:01.392Z,15.35
2022-10-18T17:11:29.212Z,16.80
2022-10-18T17:13:56.465Z,14.95
2022-10-18T17:19:02.461Z,16.70
2022-10-18T17:21:30.096Z,17.90
2022-10-18T17:24:06.089Z,17.52
2022-10-18T17:26:33.805Z,19.45
2022-10-18T17:29:06.290Z,18.88
2022-10-18T17:31:33.923Z,17.15
2022-10-18T17:34:01.955Z,16.77
2022-10-18T17:36:29.717Z,16.88
2022-10-18T17:38:56.972Z,16.90
2022-10-18T17:41:24.240Z,18.20
2022-10-18T17:43:51.391Z,17.15
2022-10-18T17:46:19.394Z,15.85
2022-10-18T17:48:46.561Z,15.70
2022-10-18T17:51:15.401Z,17.15
2022-10-18T17:53:52.843Z,18.08
2022-10-18T17:56:20.257Z,16.90
2022-10-18T17:58:50.615Z,15.70
2022-10-18T18:01:18.957Z,14.32
2022-10-18T18:03:47.794Z,14.93
2022-10-18T18:06:19.627Z,14.52
2022-10-18T18:08:47.657Z,14.25
2022-10-18T18:11:15.062Z,14.38
2022-10-18T18:13:42.613Z,13.40
2022-10-18T18:16:10.849Z,14.52
2022-10-18T18:18:38.246Z,14.25
2022-10-18T18:21:05.424Z,17.80
2022-10-18T18:23:32.714Z,18.80
2022-10-18T18:26:00.348Z,22.23
2022-10-18T18:28:27.633Z,41.67
2022-10-18T18:30:54.848Z,45.10
2022-10-18T18:33:22.122Z,55.38
2022-10-18T18:35:56.499Z,55.72
2022-10-18T18:38:24.119Z,48.67
2022-10-18T18:40:51.357Z,35.80
2022-10-18T18:43:23.158Z,29.08
2022-10-18T18:45:52.001Z,22.95
2022-10-18T18:48:20.617Z,21.83
2022-10-18T18:50:51.842Z,25.02
2022-10-18T18:53:19.668Z,27.83
2022-10-18T18:55:47.737Z,25.73
2022-10-18T18:58:14.913Z,24.92
2022-10-18T19:00:44.404Z,23.17
2022-10-18T19:03:12.498Z,24.40
2022-10-18T19:05:39.709Z,26.63
2022-10-18T19:08:07.036Z,26.65
2022-10-18T19:10:34.221Z,26.00
2022-10-18T19:13:01.363Z,24.38
2022-10-18T19:15:28.546Z,24.83
2022-10-18T19:17:56.203Z,24.42
2022-10-18T19:20:23.495Z,25.02
2022-10-18T19:22:50.686Z,23.25
2022-10-18T19:25:17.833Z,22.17
2022-10-18T19:27:45.081Z,20.90
2022-10-18T19:30:12.511Z,22.92
2022-10-18T19:32:39.668Z,22.90
2022-10-18T19:35:06.932Z,22.27
2022-10-18T19:37:34.229Z,24.13
2022-10-18T19:40:01.566Z,23.10
2022-10-18T19:42:31.195Z,85.78
2022-10-18T19:44:58.877Z,78.95
2022-10-18T19:47:26.008Z,105.68
2022-10-18T19:49:53.774Z,106.18
2022-10-18T19:52:20.965Z,81.20
2022-10-18T19:54:49.099Z,80.38
2022-10-18T19:57:16.324Z,77.03
2022-10-18T19:59:43.535Z,66.72
2022-10-18T20:02:14.205Z,64.72
2022-10-18T20:04:41.457Z,65.78
2022-10-18T20:07:08.671Z,104.43
2022-10-18T20:09:36.495Z,116.32
2022-10-18T20:12:03.733Z,121.65
2022-10-18T20:14:31.009Z,115.88
2022-10-18T20:16:58.244Z,94.72
2022-10-18T20:19:25.400Z,93.13
2022-10-18T20:21:52.592Z,91.45
2022-10-18T20:24:19.747Z,89.65
2022-10-18T20:26:46.999Z,93.05
2022-10-18T20:29:14.439Z,89.72
2022-10-18T20:31:41.632Z,89.45
2022-10-18T20:34:11.375Z,83.10
2022-10-18T20:36:38.799Z,77.72
2022-10-18T20:39:06.790Z,81.57
2022-10-18T20:41:35.268Z,70.20
2022-10-18T20:44:03.532Z,65.57
2022-10-18T20:46:31.668Z,65.63
2022-10-18T20:48:58.795Z,88.93
2022-10-18T20:51:26.293Z,75.93
2022-10-18T20:53:53.897Z,73.45
2022-10-18T20:56:22.694Z,72.55
2022-10-18T20:58:51.364Z,83.32
2022-10-18T21:01:20.289Z,74.07
2022-10-18T21:03:48.033Z,77.88
2022-10-18T21:06:19.260Z,72.72
2022-10-18T21:08:46.676Z,78.22
2022-10-18T21:11:14.490Z,76.47
2022-10-18T21:13:41.622Z,67.03
2022-10-18T21:16:09.167Z,63.58
2022-10-18T21:18:37.576Z,60.08
2022-10-18T21:23:41.237Z,43.83
2022-10-18T21:26:09.394Z,41.20
2022-10-18T21:28:36.639Z,41.22
2022-10-18T21:31:14.593Z,36.28
2022-10-18T21:33:42.071Z,35.78
2022-10-18T21:36:09.560Z,37.83
2022-10-18T21:38:36.981Z,36.15
2022-10-18T21:41:08.925Z,36.10
2022-10-18T21:43:36.169Z,35.45
2022-10-18T21:46:03.390Z,40.28
2022-10-18T21:48:30.648Z,42.30
2022-10-18T21:51:02.408Z,43.08
2022-10-18T21:53:29.560Z,43.03
2022-10-18T21:55:56.727Z,44.10
2022-10-18T21:58:24.034Z,43.50
2022-10-18T22:00:51.359Z,42.97
2022-10-18T22:03:18.584Z,40.65
2022-10-18T22:05:45.758Z,38.88
2022-10-18T22:08:12.899Z,42.70
2022-10-18T22:10:40.081Z,39.10
2022-10-18T22:13:07.253Z,38.35
2022-10-18T22:15:34.368Z,38.17
2022-10-18T22:18:01.483Z,33.70
2022-10-18T22:20:28.719Z,36.72
2022-10-18T22:22:55.924Z,35.50
2022-10-18T22:25:23.138Z,38.08
2022-10-18T22:27:50.271Z,33.97
2022-10-18T22:30:17.551Z,33.80
2022-10-18T22:32:44.724Z,34.58
2022-10-18T22:35:11.921Z,34.83
2022-10-18T22:37:39.051Z,34.65
2022-10-18T22:40:06.482Z,34.92
2022-10-18T22:45:01.783Z,33.95
2022-10-18T22:47:28.948Z,31.58
2022-10-18T22:49:56.062Z,33.55
2022-10-18T22:52:23.418Z,33.38
2022-10-18T22:54:50.547Z,32.78
2022-10-18T22:57:17.697Z,32.35
2022-10-18T22:59:45.507Z,33.22
2022-10-18T23:02:12.870Z,33.70
2022-10-18T23:04:40.040Z,32.00
2022-10-18T23:07:07.187Z,31.80
2022-10-18T23:09:34.482Z,30.92
2022-10-18T23:12:01.640Z,31.17
2022-10-18T23:14:28.786Z,31.50
2022-10-18T23:16:55.948Z,32.22
2022-10-18T23:19:23.071Z,31.60
2022-10-18T23:21:50.245Z,30.92
2022-10-18T23:24:17.388Z,29.75
2022-10-18T23:26:44.584Z,30.40
2022-10-18T23:29:11.740Z,31.40
2022-10-18T23:31:39.456Z,30.27
2022-10-18T23:34:06.692Z,29.55
2022-10-18T23:36:34.181Z,30.63
2022-10-18T23:39:01.813Z,29.95
2022-10-18T23:41:28.961Z,29.88
2022-10-18T23:43:56.210Z,30.00
2022-10-18T23:46:23.387Z,28.85
2022-10-18T23:48:50.769Z,28.92
2022-10-18T23:51:18.255Z,28.13
2022-10-18T23:53:45.475Z,29.17
2022-10-18T23:56:14.228Z,28.83
2022-10-18T23:58:42.080Z,29.23
